createdAt,value
2017-09-27T00:00:02.243Z,69.30
2017-09-27T00:02:29.765Z,67.80
2017-09-27T00:04:57.263Z,67.70
2017-09-27T00:07:24.767Z,74.63
2017-09-27T00:09:52.256Z,82.77
2017-09-27T00:12:19.765Z,73.00
2017-09-27T00:14:47.302Z,74.97
2017-09-27T00:17:14.819Z,91.43
2017-09-27T00:19:42.324Z,79.87
2017-09-27T00:22:09.798Z,95.20
2017-09-27T00:24:37.300Z,100.27
2017-09-27T00:27:04.791Z,87.10
2017-09-27T00:29:32.290Z,82.90
2017-09-27T00:31:59.809Z,92.80
2017-09-27T00:34:27.301Z,104.43
2017-09-27T00:36:54.842Z,104.87
2017-09-27T00:39:22.343Z,94.77
2017-09-27T00:41:49.870Z,91.53
2017-09-27T00:44:17.441Z,88.60
2017-09-27T00:46:44.931Z,83.77
2017-09-27T00:49:12.431Z,94.50
2017-09-27T00:51:39.975Z,112.80
2017-09-27T00:54:07.473Z,116.60
2017-09-27T00:56:35.002Z,90.40
2017-09-27T00:59:02.526Z,91.23
2017-09-27T01:01:30.017Z,84.97
2017-09-27T01:03:57.531Z,88.00
2017-09-27T01:06:25.034Z,87.93
2017-09-27T01:08:52.524Z,74.83
2017-09-27T01:11:20.032Z,72.80
2017-09-27T01:13:47.521Z,85.97
2017-09-27T01:16:15.111Z,89.13
2017-09-27T01:18:42.598Z,97.60
2017-09-27T01:21:10.143Z,77.00
2017-09-27T01:23:37.682Z,102.70
2017-09-27T01:26:05.157Z,87.93
2017-09-27T01:28:32.669Z,109.10
2017-09-27T01:31:00.180Z,125.53
2017-09-27T01:33:27.690Z,115.37
2017-09-27T01:35:55.227Z,97.60
2017-09-27T01:38:22.740Z,81.13
2017-09-27T01:40:50.269Z,77.70
2017-09-27T01:43:17.778Z,67.23
2017-09-27T01:45:45.286Z,69.00
2017-09-27T01:48:12.799Z,60.30
2017-09-27T01:50:40.306Z,67.60
2017-09-27T01:53:07.838Z,61.23
2017-09-27T01:55:35.387Z,54.40
2017-09-27T01:58:02.925Z,58.37
2017-09-27T02:00:30.458Z,60.33
2017-09-27T02:02:58.123Z,65.83
2017-09-27T02:05:25.612Z,67.47
2017-09-27T02:07:53.137Z,64.87
2017-09-27T02:10:20.651Z,60.10
2017-09-27T02:12:48.139Z,54.43
2017-09-27T02:15:15.655Z,56.40
2017-09-27T02:17:43.122Z,60.50
2017-09-27T02:20:10.606Z,56.67
2017-09-27T02:22:38.122Z,59.67
2017-09-27T02:25:05.610Z,58.90
2017-09-27T02:27:33.097Z,62.80
2017-09-27T02:30:00.604Z,57.33
2017-09-27T02:32:28.088Z,58.60
2017-09-27T02:34:55.571Z,64.63
2017-09-27T02:37:23.133Z,58.70
2017-09-27T02:39:50.643Z,56.20
2017-09-27T02:42:18.155Z,50.77
2017-09-27T02:44:45.669Z,54.73
2017-09-27T02:47:13.167Z,53.13
2017-09-27T02:49:40.682Z,56.47
2017-09-27T02:52:08.193Z,54.93
2017-09-27T02:54:35.690Z,54.30
2017-09-27T02:57:03.217Z,56.23
2017-09-27T02:59:30.723Z,55.57
2017-09-27T03:01:58.238Z,60.20
2017-09-27T03:04:25.730Z,64.17
2017-09-27T03:06:53.275Z,62.13
2017-09-27T03:09:20.780Z,56.30
2017-09-27T03:11:48.280Z,56.83
2017-09-27T03:14:15.816Z,60.80
2017-09-27T03:16:43.299Z,59.17
2017-09-27T03:19:10.788Z,59.50
2017-09-27T03:21:38.312Z,52.27
2017-09-27T03:24:05.833Z,60.83
2017-09-27T03:26:33.310Z,53.50
2017-09-27T03:29:00.848Z,56.37
2017-09-27T03:31:28.400Z,53.80
2017-09-27T03:33:55.877Z,53.83
2017-09-27T03:36:23.382Z,56.77
2017-09-27T03:38:50.902Z,68.87
2017-09-27T03:41:18.384Z,64.30
2017-09-27T03:43:45.890Z,70.57
2017-09-27T03:46:13.400Z,62.37
2017-09-27T03:48:40.908Z,65.13
2017-09-27T03:51:08.399Z,63.73
2017-09-27T03:53:35.939Z,70.13
2017-09-27T03:56:03.407Z,66.30
2017-09-27T03:58:30.939Z,66.40
2017-09-27T04:00:58.458Z,67.23
2017-09-27T04:03:25.941Z,86.50
2017-09-27T04:05:53.451Z,90.03
2017-09-27T04:08:20.986Z,112.47
2017-09-27T04:10:48.505Z,98.73
2017-09-27T04:13:15.988Z,118.13
2017-09-27T04:15:43.487Z,124.10
2017-09-27T04:18:10.959Z,120.57
2017-09-27T04:20:38.434Z,116.53
2017-09-27T04:23:05.943Z,108.60
2017-09-27T04:25:33.422Z,106.53
2017-09-27T04:28:00.911Z,112.10
2017-09-27T04:30:28.428Z,114.90
2017-09-27T04:32:55.931Z,107.47
2017-09-27T04:35:23.415Z,91.87
2017-09-27T04:37:50.926Z,119.80
2017-09-27T04:40:18.406Z,105.33
2017-09-27T04:42:45.901Z,112.83
2017-09-27T04:45:13.402Z,99.30
2017-09-27T04:47:40.882Z,97.33
2017-09-27T04:50:08.396Z,97.10
2017-09-27T04:52:35.890Z,108.93
2017-09-27T04:55:03.370Z,85.03
2017-09-27T04:57:30.856Z,92.93
2017-09-27T04:59:58.385Z,97.47
2017-09-27T05:02:25.872Z,89.70
2017-09-27T05:04:53.365Z,91.00
2017-09-27T05:07:20.871Z,80.93
2017-09-27T05:09:48.356Z,99.00
2017-09-27T05:12:15.840Z,96.87
2017-09-27T05:14:43.350Z,91.90
2017-09-27T05:17:10.881Z,80.30
2017-09-27T05:19:38.364Z,87.20
2017-09-27T05:22:05.844Z,80.77
2017-09-27T05:24:33.342Z,89.70
2017-09-27T05:27:00.811Z,85.23
2017-09-27T05:29:28.792Z,77.83
2017-09-27T05:31:56.357Z,85.10
2017-09-27T05:34:23.832Z,72.57
2017-09-27T05:36:51.316Z,89.87
2017-09-27T05:39:19.475Z,95.73
2017-09-27T05:41:46.995Z,105.47
2017-09-27T05:44:14.466Z,82.83
2017-09-27T05:46:41.972Z,79.33
2017-09-27T05:49:09.458Z,80.63
2017-09-27T05:51:36.950Z,96.20
2017-09-27T05:54:04.451Z,95.70
2017-09-27T05:56:31.926Z,81.77
2017-09-27T05:58:59.413Z,83.00
2017-09-27T06:01:26.928Z,81.50
2017-09-27T06:03:54.406Z,78.77
2017-09-27T06:06:21.955Z,80.10
2017-09-27T06:08:49.455Z,74.60
2017-09-27T06:11:16.931Z,78.97
2017-09-27T06:13:44.432Z,87.07
2017-09-27T06:16:11.943Z,83.30
2017-09-27T06:18:39.420Z,92.13
2017-09-27T06:21:06.890Z,90.53
2017-09-27T06:23:34.387Z,89.63
2017-09-27T06:26:01.868Z,84.63
2017-09-27T06:28:29.356Z,95.90
2017-09-27T06:30:56.854Z,87.90
2017-09-27T06:33:24.329Z,88.70
2017-09-27T06:35:51.799Z,83.43
2017-09-27T06:38:19.357Z,80.07
2017-09-27T06:40:46.786Z,83.03
2017-09-27T06:43:14.253Z,81.57
2017-09-27T06:45:41.754Z,80.43
2017-09-27T06:48:09.230Z,82.43
2017-09-27T06:50:36.691Z,70.23
2017-09-27T06:53:04.184Z,90.33
2017-09-27T06:55:31.651Z,87.03
2017-09-27T06:57:59.127Z,76.23
2017-09-27T07:00:26.620Z,85.27
2017-09-27T07:02:54.098Z,84.00
2017-09-27T07:05:21.575Z,86.67
2017-09-27T07:07:49.070Z,86.17
2017-09-27T07:10:16.534Z,84.53
2017-09-27T07:12:44.084Z,87.13
2017-09-27T07:15:11.536Z,88.70
2017-09-27T07:17:38.998Z,93.47
2017-09-27T07:20:06.486Z,93.77
2017-09-27T07:22:33.954Z,93.90
2017-09-27T07:25:01.411Z,83.47
2017-09-27T07:27:28.904Z,79.37
2017-09-27T07:29:56.374Z,85.60
2017-09-27T07:32:23.842Z,81.30
2017-09-27T07:34:51.328Z,77.90
2017-09-27T07:37:18.803Z,75.83
2017-09-27T07:39:46.275Z,78.37
2017-09-27T07:42:13.763Z,91.77
2017-09-27T07:44:41.226Z,101.43
2017-09-27T07:47:08.695Z,83.57
2017-09-27T07:49:36.179Z,88.90
2017-09-27T07:52:03.637Z,78.20
2017-09-27T07:54:31.090Z,79.57
2017-09-27T07:56:58.571Z,80.80
2017-09-27T07:59:26.047Z,78.77
2017-09-27T08:01:53.532Z,79.63
2017-09-27T08:04:21.003Z,76.13
2017-09-27T08:06:48.483Z,66.03
2017-09-27T08:09:15.975Z,80.10
2017-09-27T08:11:43.435Z,91.33
2017-09-27T08:14:10.903Z,81.33
2017-09-27T08:16:38.394Z,78.53
2017-09-27T08:19:05.870Z,70.03
2017-09-27T08:21:33.338Z,75.83
2017-09-27T08:24:00.822Z,98.03
2017-09-27T08:26:28.286Z,84.73
2017-09-27T08:28:55.747Z,92.60
2017-09-27T08:31:23.268Z,88.43
2017-09-27T08:33:50.738Z,97.10
2017-09-27T08:36:18.209Z,100.10
2017-09-27T08:38:45.695Z,94.53
2017-09-27T08:41:13.206Z,85.10
2017-09-27T08:43:40.655Z,96.70
2017-09-27T08:46:08.143Z,99.00
2017-09-27T08:48:35.610Z,97.63
2017-09-27T08:51:03.083Z,95.43
2017-09-27T08:53:30.589Z,104.90
2017-09-27T08:55:58.050Z,99.23
2017-09-27T08:58:25.516Z,91.87
2017-09-27T09:00:53.006Z,93.60
2017-09-27T09:03:20.463Z,96.17
2017-09-27T09:05:47.930Z,118.70
2017-09-27T09:08:15.419Z,102.77
2017-09-27T09:10:42.883Z,83.93
2017-09-27T09:13:10.354Z,79.67
2017-09-27T09:15:37.856Z,89.60
2017-09-27T09:18:05.383Z,96.87
2017-09-27T09:20:32.852Z,98.93
2017-09-27T09:23:00.312Z,77.80
2017-09-27T09:25:27.826Z,74.50
2017-09-27T09:27:55.262Z,77.33
2017-09-27T09:30:22.722Z,77.40
2017-09-27T09:32:50.206Z,81.53
2017-09-27T09:35:17.673Z,72.53
2017-09-27T09:37:45.138Z,75.63
2017-09-27T09:40:12.630Z,65.37
2017-09-27T09:42:40.096Z,65.00
2017-09-27T09:45:07.574Z,72.00
2017-09-27T09:47:35.062Z,64.90
2017-09-27T09:50:02.538Z,69.10
2017-09-27T09:52:30.014Z,59.93
2017-09-27T09:54:57.507Z,62.13
2017-09-27T09:57:24.974Z,60.80
2017-09-27T09:59:52.432Z,64.80
2017-09-27T10:02:19.919Z,61.87
2017-09-27T10:04:47.380Z,64.57
2017-09-27T10:07:14.862Z,61.80
2017-09-27T10:09:42.324Z,49.30
2017-09-27T10:12:09.835Z,56.23
2017-09-27T10:14:37.363Z,57.73
2017-09-27T10:17:04.846Z,56.27
2017-09-27T10:19:32.306Z,55.50
2017-09-27T10:21:59.782Z,69.97
2017-09-27T10:24:27.258Z,61.43
2017-09-27T10:26:54.777Z,56.10
2017-09-27T10:29:22.248Z,55.07
2017-09-27T10:31:49.740Z,50.27
2017-09-27T10:34:17.203Z,57.80
2017-09-27T10:36:44.666Z,55.70
2017-09-27T10:39:12.150Z,59.53
2017-09-27T10:41:39.616Z,52.80
2017-09-27T10:44:07.086Z,57.13
2017-09-27T10:46:34.586Z,69.77
2017-09-27T10:49:02.055Z,54.23
2017-09-27T10:51:29.519Z,59.60
2017-09-27T10:53:57.023Z,58.73
2017-09-27T10:56:24.495Z,60.13
2017-09-27T10:58:51.965Z,52.47
2017-09-27T11:01:19.450Z,53.17
2017-09-27T11:03:46.910Z,55.57
2017-09-27T11:06:14.395Z,56.33
2017-09-27T11:08:41.883Z,57.03
2017-09-27T11:11:09.362Z,58.20
2017-09-27T11:13:36.818Z,62.17
2017-09-27T11:16:04.298Z,56.13
2017-09-27T11:18:31.759Z,46.00
2017-09-27T11:20:59.214Z,52.00
2017-09-27T11:23:26.698Z,60.93
2017-09-27T11:25:54.162Z,46.50
2017-09-27T11:28:21.622Z,55.30
2017-09-27T11:30:49.147Z,66.03
2017-09-27T11:33:16.630Z,61.63
2017-09-27T11:35:44.103Z,58.67
2017-09-27T11:38:11.583Z,60.07
2017-09-27T11:40:39.042Z,58.40
2017-09-27T11:43:06.506Z,51.80
2017-09-27T11:45:33.982Z,52.83
2017-09-27T11:48:01.439Z,44.40
2017-09-27T11:50:28.898Z,56.17
2017-09-27T11:52:56.382Z,61.00
2017-09-27T11:55:23.838Z,41.77
2017-09-27T11:57:51.305Z,49.67
2017-09-27T12:00:18.786Z,48.30
2017-09-27T12:02:46.240Z,50.80
2017-09-27T12:05:13.702Z,45.00
2017-09-27T12:07:41.182Z,50.23
2017-09-27T12:10:08.641Z,46.43
2017-09-27T12:12:36.102Z,52.03
2017-09-27T12:15:03.587Z,43.77
2017-09-27T12:17:31.042Z,40.70
2017-09-27T12:19:58.508Z,37.07
2017-09-27T12:22:25.990Z,39.00
2017-09-27T12:24:53.450Z,44.37
2017-09-27T12:27:20.930Z,44.03
2017-09-27T12:29:48.391Z,36.50
2017-09-27T12:32:15.851Z,40.63
2017-09-27T12:34:43.335Z,34.33
2017-09-27T12:37:10.827Z,37.37
2017-09-27T12:39:38.306Z,39.13
2017-09-27T12:42:05.762Z,30.00
2017-09-27T12:44:33.246Z,35.23
2017-09-27T12:47:00.702Z,34.70
2017-09-27T12:49:28.159Z,37.83
2017-09-27T12:51:55.638Z,37.57
2017-09-27T12:54:23.106Z,30.13
2017-09-27T12:56:50.570Z,34.70
2017-09-27T12:59:18.064Z,31.90
2017-09-27T13:01:45.525Z,29.87
2017-09-27T13:04:12.989Z,37.63
2017-09-27T13:06:40.475Z,35.13
2017-09-27T13:09:07.934Z,32.50
2017-09-27T13:11:35.395Z,31.30
2017-09-27T13:14:02.883Z,40.37
2017-09-27T13:16:30.343Z,26.87
2017-09-27T13:18:57.799Z,27.20
2017-09-27T13:21:25.293Z,41.77
2017-09-27T13:23:52.754Z,32.17
2017-09-27T13:26:20.212Z,31.17
2017-09-27T13:28:47.694Z,28.17
2017-09-27T13:31:15.150Z,27.20
2017-09-27T13:33:42.607Z,36.13
2017-09-27T13:36:10.085Z,28.27
2017-09-27T13:38:37.537Z,27.77
2017-09-27T13:41:04.998Z,31.33
2017-09-27T13:43:32.478Z,34.20
2017-09-27T13:45:59.930Z,25.90
2017-09-27T13:48:27.389Z,28.77
2017-09-27T13:50:54.870Z,24.20
2017-09-27T13:53:22.331Z,31.00
2017-09-27T13:55:49.791Z,27.57
2017-09-27T13:58:17.279Z,28.97
2017-09-27T14:00:44.743Z,26.37
2017-09-27T14:03:12.201Z,25.10
2017-09-27T14:05:39.678Z,25.60
2017-09-27T14:08:07.142Z,29.40
2017-09-27T14:10:34.594Z,22.50
2017-09-27T14:13:02.083Z,24.93
2017-09-27T14:15:29.546Z,22.47
2017-09-27T14:17:57.007Z,25.63
2017-09-27T14:20:24.507Z,26.50
2017-09-27T14:22:51.971Z,25.10
2017-09-27T14:25:19.430Z,31.57
2017-09-27T14:27:46.911Z,28.33
2017-09-27T14:30:14.373Z,27.93
2017-09-27T14:32:41.834Z,26.37
2017-09-27T14:35:09.318Z,27.83
2017-09-27T14:37:36.774Z,27.93
2017-09-27T14:40:04.238Z,32.17
2017-09-27T14:42:31.730Z,27.30
2017-09-27T14:44:59.191Z,27.50
2017-09-27T14:47:26.658Z,32.23
2017-09-27T14:49:54.147Z,34.47
2017-09-27T14:52:21.606Z,28.80
2017-09-27T14:54:49.071Z,34.10
2017-09-27T14:57:16.569Z,29.90
2017-09-27T14:59:44.034Z,28.80
2017-09-27T15:02:11.495Z,28.83
2017-09-27T15:04:38.979Z,24.33
2017-09-27T15:07:06.437Z,30.50
2017-09-27T15:09:33.895Z,26.60
2017-09-27T15:12:01.374Z,27.03
2017-09-27T15:14:28.842Z,33.90
2017-09-27T15:16:56.299Z,26.63
2017-09-27T15:19:23.780Z,28.67
2017-09-27T15:21:51.246Z,25.07
2017-09-27T15:24:18.704Z,26.43
2017-09-27T15:26:46.191Z,32.10
2017-09-27T15:29:13.660Z,29.87
2017-09-27T15:31:41.130Z,34.67
2017-09-27T15:34:08.606Z,27.63
2017-09-27T15:36:36.071Z,26.33
2017-09-27T15:39:03.526Z,27.77
2017-09-27T15:41:31.055Z,28.43
2017-09-27T15:43:58.523Z,34.27
2017-09-27T15:46:25.981Z,29.33
2017-09-27T15:48:53.462Z,30.67
2017-09-27T15:51:20.919Z,27.23
2017-09-27T15:53:48.379Z,30.20
2017-09-27T15:56:15.867Z,31.40
2017-09-27T15:58:43.322Z,29.53
2017-09-27T16:01:10.786Z,28.23
2017-09-27T16:03:38.295Z,27.37
2017-09-27T16:06:05.774Z,30.57
2017-09-27T16:08:33.231Z,29.17
2017-09-27T16:11:00.694Z,28.67
2017-09-27T16:13:28.177Z,27.33
2017-09-27T16:15:55.636Z,27.00
2017-09-27T16:18:23.119Z,28.77
2017-09-27T16:20:50.578Z,29.93
2017-09-27T16:23:18.038Z,37.03
2017-09-27T16:25:45.518Z,32.30
2017-09-27T16:28:12.977Z,26.93
2017-09-27T16:30:40.439Z,24.33
2017-09-27T16:33:07.919Z,30.83
2017-09-27T16:35:35.378Z,29.90
2017-09-27T16:38:02.847Z,27.30
2017-09-27T16:40:30.322Z,27.93
2017-09-27T16:42:57.783Z,28.97
2017-09-27T16:45:25.243Z,27.57
2017-09-27T16:47:52.732Z,28.60
2017-09-27T16:50:20.222Z,28.30
2017-09-27T16:52:47.697Z,28.47
2017-09-27T16:55:15.174Z,34.50
2017-09-27T16:57:42.642Z,30.83
2017-09-27T17:00:10.117Z,34.40
2017-09-27T17:02:37.628Z,28.50
2017-09-27T17:05:05.110Z,35.53
2017-09-27T17:07:32.595Z,36.70
2017-09-27T17:10:00.080Z,35.23
2017-09-27T17:12:27.628Z,32.30
2017-09-27T17:14:55.111Z,30.63
2017-09-27T17:17:22.587Z,40.00
2017-09-27T17:19:50.042Z,30.03
2017-09-27T17:22:17.522Z,33.73
2017-09-27T17:24:44.987Z,37.50
2017-09-27T17:27:12.556Z,37.97
2017-09-27T17:29:40.015Z,28.43
2017-09-27T17:32:07.470Z,31.20
2017-09-27T17:34:34.966Z,39.37
2017-09-27T17:37:02.431Z,30.07
2017-09-27T17:39:29.902Z,34.77
2017-09-27T17:41:57.415Z,31.10
2017-09-27T17:44:24.874Z,29.10
2017-09-27T17:46:52.369Z,37.90
2017-09-27T17:49:19.870Z,30.63
2017-09-27T17:51:47.330Z,27.27
2017-09-27T17:54:14.801Z,34.63
2017-09-27T17:56:42.290Z,32.37
2017-09-27T17:59:09.776Z,35.90
2017-09-27T18:01:37.250Z,39.10
2017-09-27T18:17:40.167Z,57.40
2017-09-27T18:20:07.636Z,78.67
2017-09-27T18:22:35.119Z,44.83
2017-09-27T18:25:02.698Z,76.37
2017-09-27T18:27:30.178Z,55.50
2017-09-27T18:29:57.655Z,52.97
2017-09-27T18:32:25.169Z,45.43
2017-09-27T18:34:52.654Z,35.73
2017-09-27T18:37:20.131Z,32.47
2017-09-27T18:39:47.640Z,35.87
2017-09-27T18:42:15.104Z,36.03
2017-09-27T18:44:42.578Z,41.70
2017-09-27T18:47:10.133Z,35.93
2017-09-27T18:49:37.615Z,36.97
2017-09-27T18:52:05.079Z,37.10
2017-09-27T18:54:32.901Z,45.10
2017-09-27T18:57:00.688Z,36.80
2017-09-27T18:59:28.233Z,37.60
2017-09-27T19:01:55.753Z,39.43
2017-09-27T19:04:23.500Z,37.20
2017-09-27T19:06:51.411Z,42.23
2017-09-27T19:09:19.493Z,34.53
2017-09-27T19:11:47.243Z,43.93
2017-09-27T19:14:14.953Z,45.97
2017-09-27T19:16:42.834Z,40.40
2017-09-27T19:19:10.827Z,37.30
2017-09-27T19:21:38.492Z,33.90
2017-09-27T19:24:06.465Z,38.00
2017-09-27T19:26:34.135Z,34.03
2017-09-27T19:29:01.639Z,31.47
2017-09-27T19:31:29.130Z,39.47
2017-09-27T19:33:56.672Z,41.50
2017-09-27T19:36:24.211Z,42.33
2017-09-27T19:38:51.818Z,32.07
2017-09-27T19:41:19.373Z,41.27
2017-09-27T19:43:46.964Z,38.10
2017-09-27T19:46:14.505Z,41.60
2017-09-27T19:48:42.046Z,40.50
2017-09-27T19:51:09.780Z,45.70
2017-09-27T19:53:37.404Z,41.57
2017-09-27T19:56:04.999Z,33.00
2017-09-27T20:01:20.791Z,36.83
2017-09-27T20:03:48.483Z,34.97
2017-09-27T20:06:16.086Z,42.60
2017-09-27T20:08:43.580Z,41.30
2017-09-27T20:11:11.214Z,38.53
2017-09-27T20:13:38.951Z,41.73
2017-09-27T20:16:06.497Z,34.73
2017-09-27T20:18:33.994Z,40.63
2017-09-27T20:21:01.467Z,43.30
2017-09-27T20:23:29.443Z,38.30
2017-09-27T20:25:57.022Z,41.03
2017-09-27T20:28:24.622Z,40.90
2017-09-27T20:30:52.110Z,36.63
2017-09-27T20:33:19.766Z,40.40
2017-09-27T20:35:47.250Z,41.20
2017-09-27T20:38:14.731Z,53.57
2017-09-27T20:40:42.187Z,41.47
2017-09-27T20:43:09.798Z,36.63
2017-09-27T20:45:37.288Z,36.00
2017-09-27T20:48:04.747Z,39.47
2017-09-27T20:50:32.245Z,47.97
2017-09-27T20:52:59.730Z,43.67
2017-09-27T20:55:27.214Z,45.43
2017-09-27T20:57:54.717Z,39.20
2017-09-27T21:00:22.210Z,39.07
2017-09-27T21:02:49.671Z,43.73
2017-09-27T21:05:17.155Z,41.37
2017-09-27T21:07:45.521Z,46.17
2017-09-27T21:10:13.013Z,55.53
2017-09-27T21:12:40.495Z,40.83
2017-09-27T21:15:07.982Z,40.60
2017-09-27T21:17:35.485Z,52.20
2017-09-27T21:20:02.973Z,45.60
2017-09-27T21:22:30.459Z,46.50
2017-09-27T21:24:57.927Z,53.27
2017-09-27T21:27:25.396Z,46.67
2017-09-27T21:29:52.903Z,57.03
2017-09-27T21:32:21.024Z,69.63
2017-09-27T21:34:48.522Z,69.60
2017-09-27T21:37:16.028Z,66.73
2017-09-27T21:39:43.524Z,113.70
2017-09-27T21:42:10.990Z,80.73
2017-09-27T21:44:38.454Z,92.90
2017-09-27T21:47:05.943Z,136.10
2017-09-27T21:49:33.406Z,122.07
2017-09-27T21:52:00.866Z,122.07
2017-09-27T21:54:28.361Z,150.37
2017-09-27T21:56:55.856Z,126.30
2017-09-27T21:59:23.313Z,107.77
2017-09-27T22:01:50.804Z,111.30
2017-09-27T22:04:18.263Z,121.50
2017-09-27T22:06:45.726Z,83.63
2017-09-27T22:09:13.215Z,101.40
2017-09-27T22:11:40.677Z,105.70
2017-09-27T22:14:08.144Z,136.33
2017-09-27T22:16:35.629Z,74.40
2017-09-27T22:19:03.091Z,96.00
2017-09-27T22:21:30.551Z,89.93
2017-09-27T22:23:58.039Z,72.13
2017-09-27T22:26:25.506Z,68.67
2017-09-27T22:28:52.974Z,63.47
2017-09-27T22:31:20.462Z,45.57
2017-09-27T22:33:47.922Z,62.33
2017-09-27T22:36:15.408Z,53.43
2017-09-27T22:38:42.891Z,61.50
2017-09-27T22:41:10.375Z,50.10
2017-09-27T22:43:37.831Z,51.97
2017-09-27T22:46:05.306Z,61.93
2017-09-27T22:48:32.786Z,59.23
2017-09-27T22:51:00.251Z,49.50
2017-09-27T22:53:27.711Z,66.30
2017-09-27T22:55:55.189Z,50.43
2017-09-27T22:58:22.664Z,44.43
2017-09-27T23:00:50.122Z,48.50
2017-09-27T23:03:17.607Z,58.33
2017-09-27T23:05:45.067Z,46.80
2017-09-27T23:08:12.526Z,49.73
2017-09-27T23:10:40.011Z,56.53
2017-09-27T23:13:07.474Z,45.83
2017-09-27T23:15:34.945Z,51.37
2017-09-27T23:18:02.427Z,53.77
2017-09-27T23:20:29.895Z,49.90
2017-09-27T23:22:57.347Z,49.73
2017-09-27T23:25:24.826Z,54.13
2017-09-27T23:27:52.283Z,76.17
2017-09-27T23:30:19.739Z,51.67
2017-09-27T23:32:47.218Z,47.73
2017-09-27T23:35:14.674Z,53.73
2017-09-27T23:37:42.138Z,65.77
2017-09-27T23:40:09.618Z,69.83
2017-09-27T23:42:37.078Z,59.67
2017-09-27T23:45:04.534Z,73.80
2017-09-27T23:47:32.010Z,66.80
2017-09-27T23:49:59.467Z,58.27
2017-09-27T23:52:26.933Z,62.40
2017-09-27T23:54:54.417Z,66.93
2017-09-27T23:57:21.878Z,61.90
2017-09-27T23:59:49.335Z,62.10
